THY1KD LOWW-LTFM
Flight info
| Callsign | THY1KD |
|---|---|
| Flight time | 1h 39m |
| Altitude | 37000 |
| Route | ADAMA Z648 VEDER L140 ALAMU DCT EPARI DCT TEGRI DCT SODGO DCT NULGO DCT TIMUR DCT XANEX L606 GASRU DCT RILEX |
| Aircraft | B77W/H-SDE1E2E3FGHIJ2J3J4J5M1RWXY/LB1D1 |
Departure
| Time | 2026-05-05 10:58 |
|---|---|
| Airport | Vienna International Airport (LOWW) |
Arrival
| Time | 2026-05-05 12:38 |
|---|---|
| Airport | İstanbul Airport (LTFM) |
| Time | Latitude | Longitude | Altitude | Speed | Heading |
|---|---|---|---|---|---|
| 2026-05-05 09:48 | 48.11807 | 16.55978 | 627 ft | 0 kts | 79° |
| 2026-05-05 10:48 | 48.11805 | 16.55969 | 634 ft | 4 kts | 79° |
| 2026-05-05 10:49 | 48.11802 | 16.55944 | 633 ft | 2 kts | 79° |
| 2026-05-05 10:49 | 48.11799 | 16.55912 | 631 ft | 4 kts | 81° |
| 2026-05-05 10:49 | 48.11795 | 16.55872 | 631 ft | 4 kts | 84° |
| 2026-05-05 10:49 | 48.11793 | 16.55832 | 628 ft | 4 kts | 88° |
| 2026-05-05 10:50 | 48.11793 | 16.55791 | 627 ft | 4 kts | 95° |
| 2026-05-05 10:50 | 48.11797 | 16.55752 | 631 ft | 4 kts | 113° |
| 2026-05-05 10:50 | 48.11807 | 16.55722 | 631 ft | 4 kts | 116° |
| 2026-05-05 10:50 | 48.11818 | 16.55686 | 631 ft | 4 kts | 116° |
| 2026-05-05 10:51 | 48.11824 | 16.55668 | 631 ft | 0 kts | 116° |
| 2026-05-05 10:52 | 48.11817 | 16.55690 | 631 ft | 7 kts | 116° |
| 2026-05-05 10:53 | 48.11783 | 16.55795 | 631 ft | 16 kts | 116° |
| 2026-05-05 10:53 | 48.11722 | 16.55984 | 627 ft | 22 kts | 115° |
| 2026-05-05 10:53 | 48.11655 | 16.56195 | 626 ft | 23 kts | 118° |
| 2026-05-05 10:53 | 48.11585 | 16.56406 | 628 ft | 23 kts | 116° |
| 2026-05-05 10:54 | 48.11516 | 16.56617 | 629 ft | 23 kts | 115° |
| 2026-05-05 10:54 | 48.11446 | 16.56829 | 625 ft | 23 kts | 116° |
| 2026-05-05 10:54 | 48.11377 | 16.57040 | 626 ft | 23 kts | 116° |
| 2026-05-05 10:54 | 48.11315 | 16.57232 | 624 ft | 12 kts | 116° |
| 2026-05-05 10:55 | 48.11310 | 16.57347 | 631 ft | 9 kts | 50° |
| 2026-05-05 10:55 | 48.11381 | 16.57381 | 625 ft | 15 kts | 22° |
| 2026-05-05 10:55 | 48.11509 | 16.57461 | 623 ft | 22 kts | 7° |
| 2026-05-05 10:55 | 48.11659 | 16.57408 | 627 ft | 22 kts | 344° |
| 2026-05-05 10:56 | 48.11809 | 16.57345 | 621 ft | 22 kts | 344° |
| 2026-05-05 10:56 | 48.11934 | 16.57292 | 623 ft | 12 kts | 345° |
| 2026-05-05 10:56 | 48.11992 | 16.57352 | 629 ft | 13 kts | 70° |
| 2026-05-05 10:56 | 48.12009 | 16.57512 | 620 ft | 19 kts | 96° |
| 2026-05-05 10:57 | 48.11975 | 16.57710 | 630 ft | 18 kts | 105° |
| 2026-05-05 10:57 | 48.11947 | 16.57819 | 631 ft | 9 kts | 134° |
| 2026-05-05 10:57 | 48.11856 | 16.57869 | 626 ft | 27 kts | 163° |
| 2026-05-05 10:57 | 48.11472 | 16.58033 | 621 ft | 96 kts | 164° |
| 2026-05-05 10:58 | 48.10590 | 16.58407 | 631 ft | 163 kts | 163° |
| 2026-05-05 10:58 | 48.09463 | 16.58843 | 1247 ft | 162 kts | 163° |
| 2026-05-05 10:58 | 48.08422 | 16.59275 | 2306 ft | 155 kts | 168° |
| 2026-05-05 10:58 | 48.07326 | 16.59745 | 2797 ft | 175 kts | 168° |
| 2026-05-05 10:59 | 48.06073 | 16.60378 | 3025 ft | 206 kts | 160° |
| 2026-05-05 10:59 | 48.04827 | 16.61695 | 3303 ft | 244 kts | 137° |
| 2026-05-05 10:59 | 48.03930 | 16.63971 | 3973 ft | 267 kts | 113° |
| 2026-05-05 10:59 | 48.03701 | 16.66805 | 4787 ft | 282 kts | 91° |
| 2026-05-05 11:00 | 48.03832 | 16.69757 | 5614 ft | 288 kts | 92° |
| 2026-05-05 11:00 | 48.03930 | 16.72755 | 6615 ft | 288 kts | 92° |
| 2026-05-05 11:00 | 48.04008 | 16.75747 | 7672 ft | 286 kts | 93° |
| 2026-05-05 11:00 | 48.04071 | 16.78726 | 8628 ft | 288 kts | 93° |
| 2026-05-05 11:01 | 48.04130 | 16.81742 | 9522 ft | 292 kts | 93° |
| 2026-05-05 11:01 | 48.04131 | 16.84771 | 10322 ft | 292 kts | 101° |
| 2026-05-05 11:01 | 48.03744 | 16.87829 | 10771 ft | 312 kts | 108° |
| 2026-05-05 11:01 | 48.03160 | 16.91110 | 11021 ft | 342 kts | 109° |
| 2026-05-05 11:02 | 48.02537 | 16.94684 | 11388 ft | 367 kts | 108° |
| 2026-05-05 11:02 | 48.01933 | 16.98410 | 12262 ft | 377 kts | 107° |
| 2026-05-05 11:02 | 48.01331 | 17.02258 | 13324 ft | 383 kts | 107° |
| 2026-05-05 11:02 | 48.00797 | 17.06202 | 14308 ft | 391 kts | 103° |
| 2026-05-05 11:03 | 48.00472 | 17.10278 | 15245 ft | 399 kts | 99° |
| 2026-05-05 11:03 | 48.00214 | 17.14444 | 16132 ft | 407 kts | 98° |
| 2026-05-05 11:03 | 47.99948 | 17.18695 | 17010 ft | 414 kts | 99° |
| 2026-05-05 11:03 | 47.99650 | 17.23018 | 17870 ft | 422 kts | 99° |
| 2026-05-05 11:04 | 47.99322 | 17.27396 | 18779 ft | 425 kts | 99° |
| 2026-05-05 11:04 | 47.98983 | 17.31786 | 19691 ft | 427 kts | 99° |
| 2026-05-05 11:04 | 47.98546 | 17.36118 | 20443 ft | 429 kts | 105° |
| 2026-05-05 11:04 | 47.97734 | 17.40427 | 21103 ft | 435 kts | 111° |
| 2026-05-05 11:05 | 47.96729 | 17.44717 | 21796 ft | 441 kts | 112° |
| 2026-05-05 11:05 | 47.95665 | 17.49064 | 22454 ft | 449 kts | 112° |
| 2026-05-05 11:05 | 47.94604 | 17.53477 | 23160 ft | 455 kts | 111° |
| 2026-05-05 11:05 | 47.93561 | 17.57963 | 23823 ft | 460 kts | 110° |
| 2026-05-05 11:06 | 47.92534 | 17.62516 | 24406 ft | 465 kts | 110° |
| 2026-05-05 11:06 | 47.91514 | 17.67099 | 25144 ft | 465 kts | 110° |
| 2026-05-05 11:06 | 47.90499 | 17.71687 | 25848 ft | 467 kts | 110° |
| 2026-05-05 11:06 | 47.89474 | 17.76313 | 26356 ft | 474 kts | 111° |
| 2026-05-05 11:07 | 47.88429 | 17.81009 | 26857 ft | 479 kts | 110° |
| 2026-05-05 11:07 | 47.87374 | 17.85733 | 27456 ft | 481 kts | 110° |
| 2026-05-05 11:07 | 47.86312 | 17.90479 | 27999 ft | 485 kts | 111° |
| 2026-05-05 11:07 | 47.85252 | 17.95199 | 28482 ft | 489 kts | 111° |
| 2026-05-05 11:08 | 47.84082 | 17.99981 | 29000 ft | 491 kts | 115° |
| 2026-05-05 11:08 | 47.82664 | 18.04603 | 29444 ft | 493 kts | 118° |
| 2026-05-05 11:08 | 47.81181 | 18.09232 | 29883 ft | 496 kts | 117° |
| 2026-05-05 11:08 | 47.79700 | 18.13867 | 30324 ft | 496 kts | 117° |
| 2026-05-05 11:09 | 47.78235 | 18.18512 | 30888 ft | 494 kts | 117° |
| 2026-05-05 11:09 | 47.76790 | 18.23138 | 31419 ft | 493 kts | 117° |
| 2026-05-05 11:09 | 47.75373 | 18.27775 | 31920 ft | 492 kts | 114° |
| 2026-05-05 11:09 | 47.74240 | 18.32576 | 32460 ft | 492 kts | 108° |
| 2026-05-05 11:10 | 47.73391 | 18.37503 | 32891 ft | 494 kts | 104° |
| 2026-05-05 11:10 | 47.72853 | 18.42547 | 33270 ft | 496 kts | 98° |
| 2026-05-05 11:10 | 47.72482 | 18.47635 | 33730 ft | 496 kts | 97° |
| 2026-05-05 11:10 | 47.72126 | 18.52732 | 34042 ft | 497 kts | 97° |
| 2026-05-05 11:11 | 47.71767 | 18.57755 | 34552 ft | 493 kts | 97° |
| 2026-05-05 11:11 | 47.71391 | 18.62815 | 34906 ft | 494 kts | 98° |
| 2026-05-05 11:11 | 47.70998 | 18.67904 | 35205 ft | 495 kts | 97° |
| 2026-05-05 11:11 | 47.70600 | 18.72941 | 35737 ft | 491 kts | 98° |
| 2026-05-05 11:12 | 47.70197 | 18.77986 | 35931 ft | 494 kts | 98° |
| 2026-05-05 11:12 | 47.69792 | 18.83049 | 36314 ft | 492 kts | 97° |
| 2026-05-05 11:12 | 47.69388 | 18.88086 | 36677 ft | 492 kts | 97° |
| 2026-05-05 11:12 | 47.68809 | 18.93092 | 36821 ft | 493 kts | 106° |
| 2026-05-05 11:13 | 47.67588 | 18.97852 | 36906 ft | 495 kts | 118° |
| 2026-05-05 11:13 | 47.63560 | 19.05998 | 36977 ft | 488 kts | 136° |
| 2026-05-05 11:14 | 47.58804 | 19.13161 | 36973 ft | 487 kts | 136° |
| 2026-05-05 11:14 | 47.54068 | 19.20320 | 36963 ft | 486 kts | 135° |
| 2026-05-05 11:15 | 47.49364 | 19.27524 | 36965 ft | 486 kts | 135° |
| 2026-05-05 11:15 | 47.44724 | 19.34660 | 36969 ft | 485 kts | 135° |
| 2026-05-05 11:16 | 47.40042 | 19.41849 | 36963 ft | 485 kts | 135° |
| 2026-05-05 11:16 | 47.35356 | 19.49018 | 36968 ft | 485 kts | 135° |
| 2026-05-05 11:17 | 47.30660 | 19.56179 | 36973 ft | 485 kts | 135° |
| 2026-05-05 11:17 | 47.25953 | 19.63337 | 36977 ft | 485 kts | 135° |
| 2026-05-05 11:18 | 47.21251 | 19.70469 | 36980 ft | 486 kts | 135° |
| 2026-05-05 11:18 | 47.16566 | 19.77554 | 36984 ft | 486 kts | 135° |
| 2026-05-05 11:19 | 47.11850 | 19.84668 | 36992 ft | 486 kts | 135° |
| 2026-05-05 11:19 | 47.07129 | 19.91771 | 36989 ft | 486 kts | 135° |
| 2026-05-05 11:20 | 47.02387 | 19.98885 | 36991 ft | 487 kts | 135° |
| 2026-05-05 11:20 | 46.97642 | 20.05985 | 36991 ft | 487 kts | 135° |
| 2026-05-05 11:21 | 46.92928 | 20.13019 | 36992 ft | 487 kts | 135° |
| 2026-05-05 11:21 | 46.88169 | 20.20102 | 36994 ft | 488 kts | 135° |
| 2026-05-05 11:22 | 46.83405 | 20.27173 | 36996 ft | 488 kts | 135° |
| 2026-05-05 11:22 | 46.78636 | 20.34233 | 36998 ft | 488 kts | 135° |
| 2026-05-05 11:23 | 46.73862 | 20.41282 | 36995 ft | 488 kts | 135° |
| 2026-05-05 11:23 | 46.69115 | 20.48272 | 36999 ft | 488 kts | 135° |
| 2026-05-05 11:24 | 46.64331 | 20.55297 | 36993 ft | 488 kts | 135° |
| 2026-05-05 11:24 | 46.59542 | 20.62311 | 36995 ft | 487 kts | 135° |
| 2026-05-05 11:25 | 46.54762 | 20.69293 | 37000 ft | 487 kts | 135° |
| 2026-05-05 11:25 | 46.49971 | 20.76273 | 36999 ft | 487 kts | 135° |
| 2026-05-05 11:26 | 46.45181 | 20.83233 | 37005 ft | 487 kts | 135° |
| 2026-05-05 11:26 | 46.40417 | 20.90138 | 37004 ft | 488 kts | 135° |
| 2026-05-05 11:27 | 46.35601 | 20.97101 | 37014 ft | 488 kts | 135° |
| 2026-05-05 11:27 | 46.30810 | 21.04010 | 37015 ft | 489 kts | 135° |
| 2026-05-05 11:28 | 46.25978 | 21.10936 | 37018 ft | 489 kts | 137° |
| 2026-05-05 11:28 | 46.20933 | 21.17539 | 37019 ft | 489 kts | 139° |
| 2026-05-05 11:29 | 46.15826 | 21.24039 | 37020 ft | 490 kts | 139° |
| 2026-05-05 11:29 | 46.10709 | 21.30559 | 37024 ft | 490 kts | 139° |
| 2026-05-05 11:30 | 46.05606 | 21.37083 | 37022 ft | 491 kts | 138° |
| 2026-05-05 11:30 | 46.00489 | 21.43622 | 37018 ft | 491 kts | 139° |
| 2026-05-05 11:31 | 45.95373 | 21.50144 | 37021 ft | 492 kts | 138° |
| 2026-05-05 11:31 | 45.90274 | 21.56625 | 37015 ft | 493 kts | 138° |
| 2026-05-05 11:32 | 45.85131 | 21.63144 | 37014 ft | 493 kts | 139° |
| 2026-05-05 11:32 | 45.79980 | 21.69656 | 37016 ft | 493 kts | 139° |
| 2026-05-05 11:33 | 45.74822 | 21.76160 | 37018 ft | 493 kts | 138° |
| 2026-05-05 11:33 | 45.69668 | 21.82643 | 37020 ft | 493 kts | 138° |
| 2026-05-05 11:34 | 45.64507 | 21.89119 | 37010 ft | 493 kts | 139° |
| 2026-05-05 11:34 | 45.59345 | 21.95579 | 37023 ft | 493 kts | 139° |
| 2026-05-05 11:35 | 45.54171 | 22.02037 | 37027 ft | 494 kts | 138° |
| 2026-05-05 11:35 | 45.49026 | 22.08443 | 37024 ft | 494 kts | 138° |
| 2026-05-05 11:36 | 45.43843 | 22.14880 | 37028 ft | 494 kts | 138° |
| 2026-05-05 11:36 | 45.38650 | 22.21314 | 37024 ft | 494 kts | 138° |
| 2026-05-05 11:37 | 45.33453 | 22.27734 | 37037 ft | 495 kts | 138° |
| 2026-05-05 11:37 | 45.29126 | 22.33068 | 37039 ft | 495 kts | 138° |
| 2026-05-05 11:38 | 45.23919 | 22.39474 | 37040 ft | 495 kts | 138° |
| 2026-05-05 11:38 | 45.18702 | 22.45874 | 37041 ft | 495 kts | 139° |
| 2026-05-05 11:39 | 45.13490 | 22.52254 | 37043 ft | 495 kts | 138° |
| 2026-05-05 11:39 | 45.08276 | 22.58620 | 37035 ft | 495 kts | 139° |
| 2026-05-05 11:40 | 45.03055 | 22.64978 | 37044 ft | 495 kts | 139° |
| 2026-05-05 11:40 | 44.97867 | 22.71280 | 37036 ft | 495 kts | 139° |
| 2026-05-05 11:41 | 44.92632 | 22.77626 | 37044 ft | 495 kts | 139° |
| 2026-05-05 11:41 | 44.87393 | 22.83961 | 37034 ft | 496 kts | 139° |
| 2026-05-05 11:42 | 44.81975 | 22.89986 | 37023 ft | 496 kts | 142° |
| 2026-05-05 11:42 | 44.76489 | 22.95809 | 37026 ft | 497 kts | 142° |
| 2026-05-05 11:43 | 44.70959 | 23.01677 | 37031 ft | 498 kts | 142° |
| 2026-05-05 11:43 | 44.65431 | 23.07568 | 37034 ft | 498 kts | 142° |
| 2026-05-05 11:44 | 44.59899 | 23.13464 | 37028 ft | 499 kts | 142° |
| 2026-05-05 11:44 | 44.54369 | 23.19342 | 37033 ft | 499 kts | 142° |
| 2026-05-05 11:45 | 44.48826 | 23.25218 | 37031 ft | 500 kts | 142° |
| 2026-05-05 11:45 | 44.43320 | 23.31041 | 37033 ft | 500 kts | 142° |
| 2026-05-05 11:46 | 44.37760 | 23.36904 | 37035 ft | 500 kts | 142° |
| 2026-05-05 11:46 | 44.32203 | 23.42752 | 37042 ft | 500 kts | 142° |
| 2026-05-05 11:47 | 44.26643 | 23.48588 | 37029 ft | 500 kts | 142° |
| 2026-05-05 11:47 | 44.21085 | 23.54409 | 37034 ft | 499 kts | 142° |
| 2026-05-05 11:48 | 44.12746 | 23.63118 | 37035 ft | 499 kts | 142° |
| 2026-05-05 11:48 | 44.07189 | 23.68903 | 37034 ft | 499 kts | 142° |
| 2026-05-05 11:49 | 44.01964 | 23.75227 | 37024 ft | 497 kts | 131° |
| 2026-05-05 11:49 | 43.97264 | 23.82270 | 37032 ft | 497 kts | 131° |
| 2026-05-05 11:50 | 43.92548 | 23.89312 | 37053 ft | 498 kts | 131° |
| 2026-05-05 11:50 | 43.87786 | 23.96326 | 37039 ft | 500 kts | 131° |
| 2026-05-05 11:51 | 43.83034 | 24.03283 | 37035 ft | 500 kts | 132° |
| 2026-05-05 11:51 | 43.78243 | 24.10284 | 37035 ft | 500 kts | 132° |
| 2026-05-05 11:52 | 43.73450 | 24.17277 | 37036 ft | 500 kts | 132° |
| 2026-05-05 11:52 | 43.68647 | 24.24265 | 37035 ft | 500 kts | 132° |
| 2026-05-05 11:53 | 43.63691 | 24.31039 | 37039 ft | 501 kts | 135° |
| 2026-05-05 11:53 | 43.58660 | 24.37612 | 37050 ft | 501 kts | 135° |
| 2026-05-05 11:54 | 43.53613 | 24.44241 | 37038 ft | 501 kts | 135° |
| 2026-05-05 11:54 | 43.48586 | 24.50891 | 37040 ft | 500 kts | 134° |
| 2026-05-05 11:55 | 43.43563 | 24.57539 | 37033 ft | 500 kts | 134° |
| 2026-05-05 11:55 | 43.38534 | 24.64175 | 37049 ft | 501 kts | 134° |
| 2026-05-05 11:56 | 43.33534 | 24.70754 | 37036 ft | 501 kts | 135° |
| 2026-05-05 11:56 | 43.28493 | 24.77369 | 37038 ft | 501 kts | 135° |
| 2026-05-05 11:57 | 43.23451 | 24.83970 | 37052 ft | 501 kts | 135° |
| 2026-05-05 11:57 | 43.18407 | 24.90559 | 37048 ft | 501 kts | 135° |
| 2026-05-05 11:58 | 43.13351 | 24.97151 | 37037 ft | 501 kts | 135° |
| 2026-05-05 11:58 | 43.08326 | 25.03684 | 37046 ft | 501 kts | 135° |
| 2026-05-05 11:59 | 43.03265 | 25.10257 | 37056 ft | 502 kts | 135° |
| 2026-05-05 11:59 | 42.98204 | 25.16819 | 37050 ft | 502 kts | 135° |
| 2026-05-05 12:00 | 42.93132 | 25.23380 | 37055 ft | 501 kts | 135° |
| 2026-05-05 12:00 | 42.88059 | 25.29926 | 37038 ft | 501 kts | 135° |
| 2026-05-05 12:01 | 42.83020 | 25.36411 | 37043 ft | 502 kts | 135° |
| 2026-05-05 12:01 | 42.77930 | 25.42947 | 37039 ft | 502 kts | 135° |
| 2026-05-05 12:02 | 42.72836 | 25.49473 | 37039 ft | 503 kts | 135° |
| 2026-05-05 12:02 | 42.67735 | 25.55993 | 37048 ft | 503 kts | 135° |
| 2026-05-05 12:03 | 42.62636 | 25.62494 | 37056 ft | 503 kts | 135° |
| 2026-05-05 12:03 | 42.57522 | 25.69000 | 37048 ft | 503 kts | 135° |
| 2026-05-05 12:04 | 42.52409 | 25.75489 | 37058 ft | 504 kts | 135° |
| 2026-05-05 12:04 | 42.47290 | 25.81970 | 37063 ft | 503 kts | 136° |
| 2026-05-05 12:05 | 42.42170 | 25.88439 | 37062 ft | 503 kts | 136° |
| 2026-05-05 12:05 | 42.37047 | 25.94896 | 37046 ft | 503 kts | 136° |
| 2026-05-05 12:06 | 42.31961 | 26.01294 | 37038 ft | 503 kts | 136° |
| 2026-05-05 12:06 | 42.26930 | 26.07845 | 37059 ft | 502 kts | 130° |
| 2026-05-05 12:07 | 42.22740 | 26.15342 | 37057 ft | 500 kts | 119° |
| 2026-05-05 12:07 | 42.19348 | 26.23501 | 37064 ft | 499 kts | 116° |
| 2026-05-05 12:08 | 42.15988 | 26.31706 | 37059 ft | 500 kts | 117° |
| 2026-05-05 12:08 | 42.12583 | 26.39892 | 37055 ft | 500 kts | 117° |
| 2026-05-05 12:09 | 42.10864 | 26.43992 | 36465 ft | 509 kts | 117° |
| 2026-05-05 12:09 | 42.09109 | 26.48168 | 35734 ft | 511 kts | 117° |
| 2026-05-05 12:09 | 42.07355 | 26.52331 | 34880 ft | 512 kts | 117° |
| 2026-05-05 12:09 | 42.05601 | 26.56492 | 34016 ft | 512 kts | 117° |
| 2026-05-05 12:10 | 42.03845 | 26.60653 | 33240 ft | 508 kts | 117° |
| 2026-05-05 12:10 | 42.02110 | 26.64759 | 32643 ft | 501 kts | 117° |
| 2026-05-05 12:10 | 42.00397 | 26.68809 | 32067 ft | 495 kts | 117° |
| 2026-05-05 12:10 | 41.98725 | 26.72762 | 31528 ft | 489 kts | 117° |
| 2026-05-05 12:11 | 41.97049 | 26.76714 | 31011 ft | 484 kts | 117° |
| 2026-05-05 12:11 | 41.95347 | 26.80589 | 30564 ft | 478 kts | 118° |
| 2026-05-05 12:11 | 41.93624 | 26.84373 | 30151 ft | 471 kts | 118° |
| 2026-05-05 12:11 | 41.91920 | 26.88101 | 29655 ft | 465 kts | 118° |
| 2026-05-05 12:12 | 41.90247 | 26.91786 | 29250 ft | 460 kts | 118° |
| 2026-05-05 12:12 | 41.88582 | 26.95465 | 28830 ft | 459 kts | 118° |
| 2026-05-05 12:12 | 41.86918 | 26.99130 | 28421 ft | 460 kts | 118° |
| 2026-05-05 12:12 | 41.85249 | 27.02797 | 28031 ft | 460 kts | 118° |
| 2026-05-05 12:13 | 41.83584 | 27.06452 | 27606 ft | 458 kts | 118° |
| 2026-05-05 12:13 | 41.81928 | 27.10081 | 27199 ft | 453 kts | 118° |
| 2026-05-05 12:13 | 41.80279 | 27.13653 | 26761 ft | 447 kts | 120° |
| 2026-05-05 12:13 | 41.78548 | 27.17090 | 26298 ft | 442 kts | 122° |
| 2026-05-05 12:14 | 41.76784 | 27.20442 | 25849 ft | 437 kts | 122° |
| 2026-05-05 12:14 | 41.75044 | 27.23749 | 25408 ft | 432 kts | 122° |
| 2026-05-05 12:14 | 41.73360 | 27.27000 | 25006 ft | 427 kts | 122° |
| 2026-05-05 12:14 | 41.71684 | 27.30260 | 24550 ft | 423 kts | 122° |
| 2026-05-05 12:15 | 41.69890 | 27.33334 | 24111 ft | 421 kts | 135° |
| 2026-05-05 12:15 | 41.67476 | 27.35572 | 23707 ft | 426 kts | 154° |
| 2026-05-05 12:15 | 41.64646 | 27.36762 | 23225 ft | 426 kts | 166° |
| 2026-05-05 12:15 | 41.61750 | 27.37654 | 22751 ft | 428 kts | 166° |
| 2026-05-05 12:16 | 41.58847 | 27.38610 | 22295 ft | 429 kts | 165° |
| 2026-05-05 12:16 | 41.55956 | 27.39607 | 21850 ft | 430 kts | 165° |
| 2026-05-05 12:16 | 41.53057 | 27.40623 | 21486 ft | 429 kts | 165° |
| 2026-05-05 12:16 | 41.50216 | 27.41631 | 21060 ft | 425 kts | 162° |
| 2026-05-05 12:17 | 41.47572 | 27.43312 | 20560 ft | 421 kts | 140° |
| 2026-05-05 12:17 | 41.45541 | 27.46056 | 20218 ft | 413 kts | 121° |
| 2026-05-05 12:17 | 41.44253 | 27.49393 | 19908 ft | 399 kts | 104° |
| 2026-05-05 12:17 | 41.43654 | 27.52931 | 19508 ft | 388 kts | 92° |
| 2026-05-05 12:18 | 41.43657 | 27.56503 | 18881 ft | 380 kts | 76° |
| 2026-05-05 12:18 | 41.44309 | 27.59839 | 18483 ft | 368 kts | 69° |
| 2026-05-05 12:18 | 41.45004 | 27.63107 | 18047 ft | 365 kts | 70° |
| 2026-05-05 12:18 | 41.45660 | 27.66347 | 17643 ft | 360 kts | 71° |
| 2026-05-05 12:19 | 41.46205 | 27.69561 | 17132 ft | 355 kts | 80° |
| 2026-05-05 12:19 | 41.45888 | 27.72877 | 16673 ft | 371 kts | 105° |
| 2026-05-05 12:19 | 41.44730 | 27.75954 | 16558 ft | 372 kts | 120° |
| 2026-05-05 12:19 | 41.43110 | 27.78587 | 16124 ft | 367 kts | 130° |
| 2026-05-05 12:20 | 41.41319 | 27.81009 | 15644 ft | 374 kts | 132° |
| 2026-05-05 12:20 | 41.39459 | 27.83418 | 15460 ft | 372 kts | 132° |
| 2026-05-05 12:20 | 41.37608 | 27.85802 | 15335 ft | 369 kts | 132° |
| 2026-05-05 12:20 | 41.35779 | 27.88174 | 15107 ft | 362 kts | 132° |
| 2026-05-05 12:21 | 41.33989 | 27.90516 | 14514 ft | 360 kts | 131° |
| 2026-05-05 12:21 | 41.32198 | 27.92879 | 13973 ft | 367 kts | 131° |
| 2026-05-05 12:21 | 41.30391 | 27.95275 | 13775 ft | 364 kts | 131° |
| 2026-05-05 12:21 | 41.28630 | 27.97609 | 13310 ft | 352 kts | 131° |
| 2026-05-05 12:22 | 41.26916 | 27.99882 | 12630 ft | 344 kts | 131° |
| 2026-05-05 12:22 | 41.25229 | 28.02123 | 11788 ft | 343 kts | 131° |
| 2026-05-05 12:22 | 41.23536 | 28.04376 | 11002 ft | 349 kts | 131° |
| 2026-05-05 12:22 | 41.21837 | 28.06636 | 10779 ft | 350 kts | 131° |
| 2026-05-05 12:23 | 41.20125 | 28.08907 | 10663 ft | 343 kts | 131° |
| 2026-05-05 12:23 | 41.18437 | 28.11142 | 10512 ft | 338 kts | 131° |
| 2026-05-05 12:23 | 41.16802 | 28.13304 | 10408 ft | 325 kts | 131° |
| 2026-05-05 12:23 | 41.15233 | 28.15374 | 10174 ft | 311 kts | 131° |
| 2026-05-05 12:24 | 41.13702 | 28.17398 | 9851 ft | 309 kts | 131° |
| 2026-05-05 12:24 | 41.12187 | 28.19402 | 9567 ft | 305 kts | 131° |
| 2026-05-05 12:24 | 41.10692 | 28.21379 | 9348 ft | 299 kts | 131° |
| 2026-05-05 12:24 | 41.09258 | 28.23269 | 9204 ft | 282 kts | 131° |
| 2026-05-05 12:25 | 41.07896 | 28.25064 | 8898 ft | 271 kts | 131° |
| 2026-05-05 12:25 | 41.06578 | 28.26801 | 8506 ft | 265 kts | 131° |
| 2026-05-05 12:25 | 41.05284 | 28.28509 | 8030 ft | 261 kts | 131° |
| 2026-05-05 12:25 | 41.03998 | 28.30206 | 7500 ft | 261 kts | 131° |
| 2026-05-05 12:26 | 41.02702 | 28.31916 | 7126 ft | 263 kts | 131° |
| 2026-05-05 12:26 | 41.01433 | 28.33585 | 6917 ft | 258 kts | 132° |
| 2026-05-05 12:26 | 41.00165 | 28.35251 | 6661 ft | 256 kts | 132° |
| 2026-05-05 12:26 | 40.98899 | 28.36913 | 6371 ft | 256 kts | 132° |
| 2026-05-05 12:27 | 40.97650 | 28.38567 | 6114 ft | 251 kts | 129° |
| 2026-05-05 12:27 | 40.96655 | 28.40433 | 5753 ft | 248 kts | 116° |
| 2026-05-05 12:27 | 40.95823 | 28.42432 | 5450 ft | 247 kts | 115° |
| 2026-05-05 12:27 | 40.95010 | 28.44426 | 5175 ft | 246 kts | 115° |
| 2026-05-05 12:28 | 40.94471 | 28.45731 | 5067 ft | 241 kts | 116° |
| 2026-05-05 12:28 | 40.93673 | 28.47637 | 5014 ft | 238 kts | 116° |
| 2026-05-05 12:28 | 40.92859 | 28.49558 | 5020 ft | 241 kts | 115° |
| 2026-05-05 12:28 | 40.92023 | 28.51510 | 4998 ft | 245 kts | 115° |
| 2026-05-05 12:29 | 40.91180 | 28.53472 | 4987 ft | 244 kts | 114° |
| 2026-05-05 12:29 | 40.90770 | 28.55534 | 4988 ft | 227 kts | 78° |
| 2026-05-05 12:29 | 40.91348 | 28.57398 | 5007 ft | 219 kts | 54° |
| 2026-05-05 12:29 | 40.92131 | 28.59203 | 5016 ft | 233 kts | 58° |
| 2026-05-05 12:30 | 40.92901 | 28.61146 | 5017 ft | 243 kts | 59° |
| 2026-05-05 12:30 | 40.93676 | 28.63135 | 5005 ft | 242 kts | 59° |
| 2026-05-05 12:30 | 40.94431 | 28.65085 | 4989 ft | 240 kts | 59° |
| 2026-05-05 12:30 | 40.95187 | 28.67044 | 4997 ft | 238 kts | 59° |
| 2026-05-05 12:31 | 40.95932 | 28.68978 | 4996 ft | 234 kts | 59° |
| 2026-05-05 12:31 | 40.96668 | 28.70887 | 4988 ft | 231 kts | 59° |
| 2026-05-05 12:31 | 40.97632 | 28.72488 | 4994 ft | 221 kts | 30° |
| 2026-05-05 12:31 | 40.99071 | 28.73127 | 4996 ft | 218 kts | 5° |
| 2026-05-05 12:32 | 41.00576 | 28.73272 | 4998 ft | 216 kts | 1° |
| 2026-05-05 12:32 | 41.02076 | 28.73313 | 4997 ft | 214 kts | 359° |
| 2026-05-05 12:32 | 41.03568 | 28.73299 | 4771 ft | 216 kts | 359° |
| 2026-05-05 12:32 | 41.05061 | 28.73268 | 4524 ft | 213 kts | 359° |
| 2026-05-05 12:33 | 41.06534 | 28.73234 | 4239 ft | 211 kts | 359° |
| 2026-05-05 12:33 | 41.07992 | 28.73199 | 3954 ft | 209 kts | 359° |
| 2026-05-05 12:33 | 41.09435 | 28.73166 | 3680 ft | 204 kts | 359° |
| 2026-05-05 12:33 | 41.10834 | 28.73133 | 3388 ft | 198 kts | 359° |
| 2026-05-05 12:34 | 41.12185 | 28.73099 | 3106 ft | 191 kts | 359° |
| 2026-05-05 12:34 | 41.13476 | 28.73069 | 2863 ft | 185 kts | 359° |
| 2026-05-05 12:34 | 41.14741 | 28.73043 | 2594 ft | 177 kts | 359° |
| 2026-05-05 12:34 | 41.15925 | 28.73013 | 2376 ft | 165 kts | 359° |
| 2026-05-05 12:35 | 41.17046 | 28.72988 | 2171 ft | 156 kts | 359° |
| 2026-05-05 12:35 | 41.18106 | 28.72962 | 1963 ft | 148 kts | 359° |
| 2026-05-05 12:35 | 41.19107 | 28.72943 | 1770 ft | 142 kts | 359° |
| 2026-05-05 12:35 | 41.20077 | 28.72918 | 1570 ft | 137 kts | 359° |
| 2026-05-05 12:36 | 41.21033 | 28.72897 | 1381 ft | 138 kts | 359° |
| 2026-05-05 12:36 | 41.22002 | 28.72874 | 1234 ft | 141 kts | 359° |
| 2026-05-05 12:36 | 41.22996 | 28.72855 | 1014 ft | 143 kts | 359° |
| 2026-05-05 12:36 | 41.23971 | 28.72829 | 821 ft | 138 kts | 360° |
| 2026-05-05 12:37 | 41.24927 | 28.72805 | 661 ft | 137 kts | 0° |
| 2026-05-05 12:37 | 41.25884 | 28.72782 | 470 ft | 136 kts | 1° |
| 2026-05-05 12:37 | 41.26801 | 28.72760 | 345 ft | 123 kts | 1° |
| 2026-05-05 12:37 | 41.27525 | 28.72745 | 334 ft | 82 kts | 359° |
| 2026-05-05 12:38 | 41.27870 | 28.72743 | 334 ft | 28 kts | 6° |
| 2026-05-05 12:38 | 41.28053 | 28.72823 | 336 ft | 28 kts | 27° |
| 2026-05-05 12:38 | 41.28136 | 28.72904 | 334 ft | 9 kts | 60° |
| 2026-05-05 12:38 | 41.28126 | 28.72950 | 335 ft | 4 kts | 151° |
| 2026-05-05 12:39 | 41.28074 | 28.72959 | 335 ft | 13 kts | 178° |
| 2026-05-05 12:39 | 41.27939 | 28.72965 | 337 ft | 22 kts | 180° |
| 2026-05-05 12:39 | 41.27786 | 28.72968 | 335 ft | 22 kts | 179° |
| 2026-05-05 12:39 | 41.27632 | 28.72970 | 334 ft | 22 kts | 179° |
| 2026-05-05 12:40 | 41.27464 | 28.72975 | 335 ft | 26 kts | 179° |
| 2026-05-05 12:40 | 41.27266 | 28.72981 | 334 ft | 30 kts | 179° |
| 2026-05-05 12:40 | 41.27064 | 28.72986 | 334 ft | 21 kts | 179° |
| 2026-05-05 12:40 | 41.26965 | 28.72998 | 333 ft | 10 kts | 143° |
| 2026-05-05 12:41 | 41.26954 | 28.73090 | 339 ft | 13 kts | 89° |
| 2026-05-05 12:41 | 41.26956 | 28.73238 | 335 ft | 17 kts | 89° |
| 2026-05-05 12:41 | 41.26958 | 28.73397 | 335 ft | 18 kts | 89° |
| 2026-05-05 12:41 | 41.26960 | 28.73614 | 339 ft | 31 kts | 89° |
| 2026-05-05 12:42 | 41.26965 | 28.73879 | 339 ft | 27 kts | 88° |
| 2026-05-05 12:42 | 41.26968 | 28.74132 | 339 ft | 27 kts | 89° |
| 2026-05-05 12:42 | 41.26970 | 28.74361 | 339 ft | 12 kts | 89° |
| 2026-05-05 12:42 | 41.26963 | 28.74446 | 339 ft | 9 kts | 126° |
| 2026-05-05 12:43 | 41.26900 | 28.74470 | 333 ft | 10 kts | 149° |
| 2026-05-05 12:43 | 41.26886 | 28.74559 | 335 ft | 10 kts | 91° |
| 2026-05-05 12:43 | 41.26887 | 28.74677 | 334 ft | 15 kts | 89° |
| 2026-05-05 12:43 | 41.26888 | 28.74816 | 339 ft | 15 kts | 89° |
| 2026-05-05 12:44 | 41.26887 | 28.74882 | 334 ft | 5 kts | 107° |
| 2026-05-05 12:44 | 41.26856 | 28.74906 | 336 ft | 6 kts | 165° |
| 2026-05-05 12:44 | 41.26815 | 28.74912 | 336 ft | 6 kts | 178° |
| 2026-05-05 12:44 | 41.26794 | 28.74913 | 336 ft | 2 kts | 178° |
| 2026-05-05 12:45 | 41.26792 | 28.74913 | 334 ft | 0 kts | 178° |